createdAt,value
2022-09-11T00:01:27.371Z,99.90
2022-09-11T00:03:57.342Z,99.90
2022-09-11T00:06:29.832Z,99.90
2022-09-11T00:09:02.862Z,99.90
2022-09-11T00:11:33.897Z,99.90
2022-09-11T00:14:02.311Z,99.90
2022-09-11T00:16:34.923Z,99.90
2022-09-11T00:19:17.473Z,99.90
2022-09-11T00:21:46.456Z,99.90
2022-09-11T00:24:13.412Z,99.90
2022-09-11T00:26:42.518Z,99.90
2022-09-11T00:29:10.624Z,99.90
2022-09-11T00:31:37.880Z,99.90
2022-09-11T00:34:04.891Z,99.90
2022-09-11T00:36:35.078Z,99.90
2022-09-11T00:39:02.180Z,99.90
2022-09-11T00:41:38.571Z,99.90
2022-09-11T00:44:25.716Z,99.90
2022-09-11T00:46:59.467Z,99.90
2022-09-11T00:49:35.131Z,99.90
2022-09-11T00:52:10.348Z,99.90
2022-09-11T00:54:44.719Z,99.90
2022-09-11T00:57:11.844Z,99.90
2022-09-11T00:59:44.082Z,99.90
2022-09-11T01:02:15.250Z,99.90
2022-09-11T01:04:42.279Z,99.90
2022-09-11T01:07:11.978Z,99.90
2022-09-11T01:09:39.222Z,99.90
2022-09-11T01:12:11.914Z,99.90
2022-09-11T01:15:03.885Z,99.90
2022-09-11T01:18:06.061Z,99.90
2022-09-11T01:20:43.484Z,99.90
2022-09-11T01:23:47.757Z,99.90
2022-09-11T01:26:37.422Z,99.90
2022-09-11T01:29:23.651Z,99.90
2022-09-11T01:32:02.764Z,99.90
2022-09-11T01:35:17.946Z,99.90
2022-09-11T01:37:59.718Z,99.90
2022-09-11T01:40:38.315Z,99.90
2022-09-11T01:43:16.288Z,99.90
2022-09-11T01:45:47.272Z,99.90
2022-09-11T01:48:19.413Z,99.90
2022-09-11T01:50:47.680Z,99.90
2022-09-11T01:53:18.643Z,99.90
2022-09-11T01:55:57.970Z,99.90
2022-09-11T01:58:30.637Z,99.90
2022-09-11T02:01:11.201Z,99.90
2022-09-11T02:03:41.676Z,99.90
2022-09-11T02:06:15.193Z,99.90
2022-09-11T02:09:00.736Z,99.90
2022-09-11T02:11:32.012Z,99.90
2022-09-11T02:14:13.840Z,99.90
2022-09-11T02:16:50.229Z,99.90
2022-09-11T02:19:29.978Z,99.90
2022-09-11T02:21:58.616Z,99.90
2022-09-11T02:24:27.361Z,99.90
2022-09-11T02:27:13.720Z,99.90
2022-09-11T02:29:43.802Z,99.90
2022-09-11T02:32:11.401Z,99.90
2022-09-11T02:34:40.499Z,99.90
2022-09-11T02:37:56.103Z,99.90
2022-09-11T02:40:49.270Z,99.90
2022-09-11T02:43:32.757Z,99.90
2022-09-11T02:46:03.404Z,99.90
2022-09-11T02:49:09.098Z,99.90
2022-09-11T02:51:59.884Z,99.90
2022-09-11T02:54:48.675Z,99.90
2022-09-11T02:57:25.697Z,99.90
2022-09-11T03:00:02.389Z,99.90
2022-09-11T03:02:33.952Z,99.90
2022-09-11T03:05:01.969Z,99.90
2022-09-11T03:07:28.925Z,99.90
2022-09-11T03:09:56.476Z,99.90
2022-09-11T03:12:24.916Z,99.90
2022-09-11T03:14:52.504Z,99.90
2022-09-11T03:17:21.941Z,99.90
2022-09-11T03:19:49.567Z,99.90
2022-09-11T03:22:17.801Z,99.90
2022-09-11T03:24:45.127Z,99.90
2022-09-11T03:27:12.905Z,99.90
2022-09-11T03:29:41.688Z,99.90
2022-09-11T03:32:13.713Z,99.90
2022-09-11T03:34:40.567Z,99.90
2022-09-11T03:37:08.743Z,99.90
2022-09-11T03:39:37.031Z,99.90
2022-09-11T03:42:04.308Z,99.90
2022-09-11T03:44:31.578Z,99.90
2022-09-11T03:46:58.875Z,99.90
2022-09-11T03:49:25.900Z,99.90
2022-09-11T03:51:55.370Z,99.90
2022-09-11T03:54:22.530Z,99.90
2022-09-11T03:56:51.971Z,99.90
2022-09-11T03:59:20.379Z,99.90
2022-09-11T04:01:50.870Z,99.90
2022-09-11T04:04:18.240Z,99.90
2022-09-11T04:06:45.866Z,99.90
2022-09-11T04:09:13.805Z,99.90
2022-09-11T04:11:42.358Z,99.90
2022-09-11T04:14:20.409Z,99.90
2022-09-11T04:16:48.275Z,99.90
2022-09-11T04:19:15.256Z,99.90
2022-09-11T04:21:44.904Z,99.90
2022-09-11T04:24:12.023Z,99.90
2022-09-11T04:26:40.365Z,99.90
2022-09-11T04:29:13.845Z,99.90
2022-09-11T04:31:42.687Z,99.90
2022-09-11T04:34:11.620Z,99.90
2022-09-11T04:36:39.295Z,99.90
2022-09-11T04:39:11.064Z,99.90
2022-09-11T04:41:38.276Z,99.90
2022-09-11T04:44:06.747Z,99.90
2022-09-11T04:46:41.226Z,99.90
2022-09-11T04:49:09.251Z,99.90
2022-09-11T04:51:38.324Z,99.90
2022-09-11T04:54:07.882Z,99.90
2022-09-11T04:56:38.781Z,99.90
2022-09-11T04:59:22.427Z,99.90
2022-09-11T05:02:10.321Z,99.90
2022-09-11T05:04:40.400Z,99.90
2022-09-11T05:07:08.263Z,99.90
2022-09-11T05:09:37.055Z,99.90
2022-09-11T05:12:06.383Z,99.90
2022-09-11T05:14:37.915Z,99.90
2022-09-11T05:17:05.464Z,99.90
2022-09-11T05:19:37.546Z,99.90
2022-09-11T05:22:07.256Z,99.90
2022-09-11T05:24:37.920Z,99.90
2022-09-11T05:27:06.699Z,99.90
2022-09-11T05:29:33.737Z,99.90
2022-09-11T05:32:06.440Z,99.90
2022-09-11T05:34:33.465Z,99.90
2022-09-11T05:37:03.215Z,99.90
2022-09-11T05:39:36.717Z,99.90
2022-09-11T05:42:04.659Z,99.90
2022-09-11T05:44:36.416Z,99.90
2022-09-11T05:47:04.846Z,99.90
2022-09-11T05:49:33.118Z,99.90
2022-09-11T05:52:03.610Z,99.90
2022-09-11T05:54:32.650Z,99.90
2022-09-11T05:57:07.362Z,99.90
2022-09-11T05:59:35.225Z,99.90
2022-09-11T06:02:03.091Z,99.90
2022-09-11T06:04:42.573Z,99.90
2022-09-11T06:07:09.573Z,99.90
2022-09-11T06:09:38.669Z,99.90
2022-09-11T06:12:07.257Z,99.90
2022-09-11T06:14:35.371Z,99.90
2022-09-11T06:17:06.489Z,99.90
2022-09-11T06:19:33.840Z,99.90
2022-09-11T06:22:00.766Z,99.90
2022-09-11T06:24:33.072Z,99.90
2022-09-11T06:27:00.023Z,99.90
2022-09-11T06:29:28.915Z,99.90
2022-09-11T06:31:55.866Z,99.90
2022-09-11T06:34:27.198Z,99.90
2022-09-11T06:36:56.460Z,99.90
2022-09-11T06:39:23.427Z,99.90
2022-09-11T06:41:54.154Z,99.90
2022-09-11T06:44:27.584Z,99.90
2022-09-11T06:46:57.992Z,99.90
2022-09-11T06:49:25.833Z,99.90
2022-09-11T06:52:11.335Z,99.90
2022-09-11T06:54:40.556Z,99.90
2022-09-11T06:57:12.563Z,99.90
2022-09-11T06:59:39.514Z,99.90
2022-09-11T07:02:06.574Z,99.90
2022-09-11T07:04:33.565Z,99.90
2022-09-11T07:07:01.763Z,99.90
2022-09-11T07:09:29.535Z,99.90
2022-09-11T07:11:57.641Z,99.90
2022-09-11T07:14:27.347Z,99.90
2022-09-11T07:17:03.785Z,99.90
2022-09-11T07:19:30.810Z,99.90
2022-09-11T07:21:58.799Z,99.90
2022-09-11T07:24:27.601Z,99.90
2022-09-11T07:26:55.123Z,99.90
2022-09-11T07:29:29.605Z,99.90
2022-09-11T07:31:58.975Z,99.90
2022-09-11T07:34:27.191Z,99.90
2022-09-11T07:36:56.967Z,99.90
2022-09-11T07:39:26.255Z,99.90
2022-09-11T07:41:59.834Z,99.90
2022-09-11T07:44:31.311Z,99.90
2022-09-11T07:46:58.412Z,99.90
2022-09-11T07:49:27.580Z,99.90
2022-09-11T07:51:55.903Z,99.90
2022-09-11T07:54:33.422Z,99.90
2022-09-11T07:57:00.563Z,99.90
2022-09-11T07:59:28.112Z,99.90
2022-09-11T08:01:55.850Z,99.90
2022-09-11T08:04:24.628Z,99.90
2022-09-11T08:06:52.178Z,99.90
2022-09-11T08:09:28.004Z,99.90
2022-09-11T08:11:59.348Z,99.90
2022-09-11T08:14:27.556Z,99.70
2022-09-11T08:16:58.725Z,98.50
2022-09-11T08:19:28.421Z,97.40
2022-09-11T08:21:59.143Z,97.00
2022-09-11T08:24:27.546Z,95.60
2022-09-11T08:26:58.981Z,95.60
2022-09-11T08:29:26.833Z,95.10
2022-09-11T08:32:02.113Z,95.70
2022-09-11T08:34:31.042Z,95.00
2022-09-11T08:36:57.965Z,94.80
2022-09-11T08:39:27.148Z,94.10
2022-09-11T08:42:06.939Z,94.00
2022-09-11T08:44:49.377Z,94.30
2022-09-11T08:47:31.511Z,94.80
2022-09-11T08:50:18.337Z,95.20
2022-09-11T08:52:46.279Z,94.60
2022-09-11T08:55:24.182Z,94.90
2022-09-11T08:58:18.548Z,93.80
2022-09-11T09:01:04.424Z,93.80
2022-09-11T09:03:50.125Z,93.20
2022-09-11T09:06:26.331Z,93.10
2022-09-11T09:09:01.358Z,93.00
2022-09-11T09:11:32.446Z,93.10
2022-09-11T09:14:30.562Z,93.20
2022-09-11T09:17:12.683Z,93.00
2022-09-11T09:20:00.765Z,92.40
2022-09-11T09:22:52.777Z,92.70
2022-09-11T09:25:23.147Z,93.00
2022-09-11T09:28:01.783Z,92.10
2022-09-11T09:30:38.527Z,93.20
2022-09-11T09:33:15.701Z,92.40
2022-09-11T09:35:44.915Z,93.30
2022-09-11T09:38:25.042Z,91.80
2022-09-11T09:41:34.014Z,91.90
2022-09-11T09:44:18.975Z,91.40
2022-09-11T09:46:51.305Z,92.70
2022-09-11T09:49:24.548Z,92.10
2022-09-11T09:51:54.523Z,91.80
2022-09-11T09:54:26.486Z,91.90
2022-09-11T09:57:10.427Z,92.20
2022-09-11T10:00:15.947Z,92.60
2022-09-11T10:02:45.665Z,92.40
2022-09-11T10:05:16.373Z,91.50
2022-09-11T10:07:52.417Z,91.10
2022-09-11T10:10:26.748Z,91.40
2022-09-11T10:13:17.984Z,92.00
2022-09-11T10:15:48.305Z,91.00
2022-09-11T10:18:37.367Z,90.80
2022-09-11T10:21:13.419Z,91.70
2022-09-11T10:23:45.472Z,90.40
2022-09-11T10:26:25.647Z,91.00
2022-09-11T10:28:55.811Z,90.60
2022-09-11T10:31:23.084Z,90.30
2022-09-11T10:33:58.913Z,91.00
2022-09-11T10:36:28.673Z,90.30
2022-09-11T10:39:00.804Z,90.50
2022-09-11T10:41:34.295Z,89.30
2022-09-11T10:44:14.418Z,87.80
2022-09-11T10:46:43.384Z,88.60
2022-09-11T10:49:23.115Z,90.80
2022-09-11T10:52:01.193Z,90.30
2022-09-11T10:54:53.366Z,90.50
2022-09-11T10:57:29.031Z,90.80
2022-09-11T11:00:04.850Z,91.00
2022-09-11T11:02:43.575Z,91.40
2022-09-11T11:05:28.206Z,90.00
2022-09-11T11:08:04.000Z,87.90
2022-09-11T11:10:51.284Z,89.30
2022-09-11T11:13:56.197Z,86.60
2022-09-11T11:16:40.354Z,87.60
2022-09-11T11:19:28.456Z,87.90
2022-09-11T11:22:15.261Z,89.20
2022-09-11T11:25:02.627Z,86.60
2022-09-11T11:27:59.030Z,88.70
2022-09-11T11:31:12.033Z,86.30
2022-09-11T11:34:23.310Z,90.30
2022-09-11T11:37:00.448Z,85.70
2022-09-11T11:39:40.465Z,85.50
2022-09-11T11:42:26.829Z,85.60
2022-09-11T11:45:07.164Z,85.60
2022-09-11T11:47:44.169Z,86.30
2022-09-11T11:50:16.576Z,86.30
2022-09-11T11:53:18.306Z,86.30
2022-09-11T11:56:04.993Z,85.90
2022-09-11T11:58:52.983Z,84.90
2022-09-11T12:01:37.131Z,82.40
2022-09-11T12:04:42.807Z,83.60
2022-09-11T12:07:36.658Z,81.60
2022-09-11T12:10:07.706Z,78.80
2022-09-11T12:12:58.447Z,81.90
2022-09-11T12:15:32.282Z,79.30
2022-09-11T12:18:11.487Z,79.30
2022-09-11T12:20:40.860Z,77.20
2022-09-11T12:23:30.875Z,74.60
2022-09-11T12:26:24.529Z,73.40
2022-09-11T12:29:16.337Z,74.10
2022-09-11T12:31:52.504Z,72.40
2022-09-11T12:34:23.547Z,70.60
2022-09-11T12:36:55.316Z,72.20
2022-09-11T12:39:34.784Z,71.20
2022-09-11T12:42:23.832Z,68.60
2022-09-11T12:44:51.945Z,67.50
2022-09-11T12:47:23.520Z,68.90
2022-09-11T12:50:17.723Z,69.80
2022-09-11T12:53:04.221Z,68.30
2022-09-11T12:55:50.636Z,66.50
2022-09-11T12:58:20.435Z,67.30
2022-09-11T13:01:15.585Z,66.50
2022-09-11T13:04:01.271Z,69.00
2022-09-11T13:06:58.692Z,66.60
2022-09-11T13:09:28.079Z,66.40
2022-09-11T13:11:57.165Z,64.60
2022-09-11T13:14:35.426Z,63.50
2022-09-11T13:17:13.178Z,65.50
2022-09-11T13:19:40.062Z,64.00
2022-09-11T13:22:33.801Z,63.80
2022-09-11T13:25:06.441Z,63.20
2022-09-11T13:27:37.625Z,63.30
2022-09-11T13:30:06.872Z,61.40
2022-09-11T13:32:35.452Z,64.20
2022-09-11T13:35:11.152Z,64.00
2022-09-11T13:37:45.608Z,65.50
2022-09-11T13:40:25.845Z,65.30
2022-09-11T13:42:54.431Z,64.40
2022-09-11T13:45:22.746Z,65.00
2022-09-11T13:47:49.731Z,65.90
2022-09-11T13:50:18.620Z,66.30
2022-09-11T13:52:46.222Z,65.30
2022-09-11T13:55:19.568Z,65.90
2022-09-11T13:57:57.688Z,67.20
2022-09-11T14:00:45.815Z,67.10
2022-09-11T14:03:16.665Z,68.80
2022-09-11T14:05:53.846Z,68.60
2022-09-11T14:08:42.757Z,68.70
2022-09-11T14:11:16.611Z,70.30
2022-09-11T14:13:53.884Z,71.80
2022-09-11T14:17:07.382Z,73.00
2022-09-11T14:19:46.500Z,72.10
2022-09-11T14:22:17.021Z,72.40
2022-09-11T14:25:18.505Z,73.00
2022-09-11T14:27:45.645Z,74.50
2022-09-11T14:30:28.265Z,76.00
2022-09-11T14:33:16.896Z,76.00
2022-09-11T14:35:47.143Z,76.30
2022-09-11T14:38:16.099Z,77.20
2022-09-11T14:40:49.796Z,77.90
2022-09-11T14:43:21.130Z,77.10
2022-09-11T14:45:50.156Z,76.00
2022-09-11T14:48:17.285Z,76.20
2022-09-11T14:50:44.434Z,77.10
2022-09-11T14:53:18.799Z,76.40
2022-09-11T14:55:46.339Z,75.70
2022-09-11T14:58:16.236Z,75.40
2022-09-11T15:00:43.938Z,74.00
2022-09-11T15:03:11.185Z,74.70
2022-09-11T15:05:38.973Z,74.90
2022-09-11T15:08:06.459Z,75.40
2022-09-11T15:10:34.402Z,75.90
2022-09-11T15:13:02.885Z,75.20
2022-09-11T15:15:31.601Z,76.90
2022-09-11T15:17:58.904Z,75.40
2022-09-11T15:20:35.407Z,74.40
2022-09-11T15:23:32.834Z,71.30
2022-09-11T15:26:42.047Z,72.50
2022-09-11T15:29:54.605Z,71.60
2022-09-11T15:32:22.438Z,68.00
2022-09-11T15:34:55.413Z,65.10
2022-09-11T15:37:23.786Z,64.70
2022-09-11T15:39:51.173Z,62.70
2022-09-11T15:42:59.152Z,63.10
2022-09-11T15:45:26.859Z,61.30
2022-09-11T15:48:14.882Z,61.90
2022-09-11T15:51:14.151Z,61.00
2022-09-11T15:57:41.982Z,61.80
2022-09-11T16:03:56.638Z,61.90
2022-09-11T16:06:28.276Z,60.50
2022-09-11T16:08:59.545Z,61.00
2022-09-11T16:11:26.788Z,61.90
2022-09-11T16:13:55.655Z,63.90
2022-09-11T16:16:23.020Z,62.20
2022-09-11T16:18:50.449Z,61.90
2022-09-11T16:21:18.422Z,61.90
2022-09-11T16:23:48.781Z,61.40
2022-09-11T16:26:23.832Z,61.80
2022-09-11T16:28:55.371Z,62.40
2022-09-11T16:31:22.876Z,62.30
2022-09-11T16:33:50.792Z,61.90
2022-09-11T16:36:20.904Z,62.20
2022-09-11T16:38:50.307Z,62.70
2022-09-11T16:41:20.215Z,63.20
2022-09-11T16:43:49.515Z,62.80
2022-09-11T16:46:20.328Z,63.30
2022-09-11T16:48:51.857Z,63.30
2022-09-11T16:51:21.221Z,63.60
2022-09-11T16:53:48.265Z,63.30
2022-09-11T16:56:18.817Z,63.60
2022-09-11T16:58:46.688Z,63.50
2022-09-11T17:01:16.412Z,63.70
2022-09-11T17:03:47.362Z,64.20
2022-09-11T17:06:15.071Z,64.30
2022-09-11T17:08:43.889Z,64.60
2022-09-11T17:11:14.006Z,65.50
2022-09-11T17:13:44.491Z,65.10
2022-09-11T17:16:16.610Z,65.60
2022-09-11T17:18:49.601Z,65.60
2022-09-11T17:21:18.384Z,66.50
2022-09-11T17:23:46.428Z,67.20
2022-09-11T17:26:15.311Z,67.60
2022-09-11T17:28:44.932Z,68.00
2022-09-11T17:31:14.481Z,68.10
2022-09-11T17:33:42.402Z,68.40
2022-09-11T17:36:11.231Z,68.70
2022-09-11T17:38:39.247Z,69.30
2022-09-11T17:41:08.114Z,70.00
2022-09-11T17:43:37.175Z,70.20
2022-09-11T17:46:05.653Z,70.60
2022-09-11T17:48:33.085Z,71.20
2022-09-11T17:51:05.549Z,71.80
2022-09-11T17:53:38.600Z,72.40
2022-09-11T17:56:14.594Z,73.00
2022-09-11T17:58:44.848Z,73.90
2022-09-11T18:01:16.846Z,75.10
2022-09-11T18:03:49.322Z,75.10
2022-09-11T18:06:25.427Z,76.30
2022-09-11T18:08:54.044Z,77.70
2022-09-11T18:11:20.964Z,78.70
2022-09-11T18:13:47.887Z,79.50
2022-09-11T18:16:15.121Z,81.10
2022-09-11T18:19:16.162Z,82.20
2022-09-11T18:21:46.762Z,83.50
2022-09-11T18:24:20.154Z,84.10
2022-09-11T18:26:50.030Z,85.40
2022-09-11T18:29:20.047Z,85.70
2022-09-11T18:31:52.615Z,88.00
2022-09-11T18:34:22.735Z,89.70
2022-09-11T18:36:49.860Z,90.40
2022-09-11T18:39:18.829Z,91.00
2022-09-11T18:41:47.105Z,91.90
2022-09-11T18:44:19.854Z,92.40
2022-09-11T18:46:47.884Z,92.80
2022-09-11T18:49:15.826Z,93.20
2022-09-11T18:51:42.891Z,93.80
2022-09-11T18:54:15.726Z,94.10
2022-09-11T18:56:44.545Z,94.40
2022-09-11T18:59:13.912Z,94.60
2022-09-11T19:01:41.533Z,95.10
2022-09-11T19:04:10.730Z,95.40
2022-09-11T19:06:41.478Z,95.80
2022-09-11T19:09:10.521Z,96.50
2022-09-11T19:11:38.403Z,96.50
2022-09-11T19:14:07.681Z,97.00
2022-09-11T19:16:35.360Z,97.50
2022-09-11T19:19:03.009Z,98.20
2022-09-11T19:21:30.751Z,98.20
2022-09-11T19:24:00.641Z,98.50
2022-09-11T19:26:40.289Z,98.70
2022-09-11T19:29:13.700Z,98.80
2022-09-11T19:31:41.222Z,99.10
2022-09-11T19:34:11.835Z,99.40
2022-09-11T19:36:38.849Z,99.80
2022-09-11T19:39:06.627Z,99.90
2022-09-11T19:41:40.230Z,99.90
2022-09-11T19:44:10.139Z,99.90
2022-09-11T19:46:40.963Z,99.90
2022-09-11T19:49:09.486Z,99.90
2022-09-11T19:51:39.300Z,99.90
2022-09-11T19:54:06.528Z,99.90
2022-09-11T19:56:36.880Z,99.90
2022-09-11T19:59:05.663Z,99.90
2022-09-11T20:01:32.883Z,99.90
2022-09-11T20:04:00.900Z,99.90
2022-09-11T20:06:31.991Z,99.90
2022-09-11T20:09:20.174Z,99.90
2022-09-11T20:11:46.940Z,99.90
2022-09-11T20:14:13.960Z,99.90
2022-09-11T20:16:46.174Z,99.90
2022-09-11T20:19:14.893Z,99.90
2022-09-11T20:21:41.984Z,99.90
2022-09-11T20:24:09.287Z,99.90
2022-09-11T20:26:36.719Z,99.90
2022-09-11T20:29:07.083Z,99.90
2022-09-11T20:31:42.391Z,99.90
2022-09-11T20:34:13.927Z,99.90
2022-09-11T20:36:40.832Z,99.90
2022-09-11T20:39:07.642Z,99.90
2022-09-11T20:41:35.885Z,99.90
2022-09-11T20:44:04.369Z,99.90
2022-09-11T20:46:31.492Z,99.90
2022-09-11T20:49:00.039Z,99.90
2022-09-11T20:51:27.790Z,99.90
2022-09-11T20:53:56.811Z,99.90
2022-09-11T20:56:25.505Z,99.90
2022-09-11T20:58:52.613Z,99.90
2022-09-11T21:01:22.182Z,99.90
2022-09-11T21:03:54.369Z,99.90
2022-09-11T21:06:25.900Z,99.90
2022-09-11T21:08:55.776Z,99.90
2022-09-11T21:11:24.108Z,99.90
2022-09-11T21:13:51.515Z,99.90
2022-09-11T21:16:20.021Z,99.90
2022-09-11T21:18:50.102Z,99.90
2022-09-11T21:21:17.596Z,99.90
2022-09-11T21:23:44.775Z,99.90
2022-09-11T21:26:13.790Z,99.90
2022-09-11T21:28:40.699Z,99.90
2022-09-11T21:31:07.934Z,99.90
2022-09-11T21:33:36.069Z,99.90
2022-09-11T21:36:03.942Z,99.90
2022-09-11T21:38:30.989Z,99.90
2022-09-11T21:40:59.530Z,99.90
2022-09-11T21:43:27.127Z,99.90
2022-09-11T21:45:54.368Z,99.90
2022-09-11T21:48:21.315Z,99.90
2022-09-11T21:50:48.208Z,99.90
2022-09-11T21:53:15.567Z,99.90
2022-09-11T21:55:45.471Z,99.90
2022-09-11T21:58:17.657Z,99.90
2022-09-11T22:00:45.421Z,99.90
2022-09-11T22:03:13.594Z,99.90
2022-09-11T22:05:43.103Z,99.90
2022-09-11T22:08:12.010Z,99.90
2022-09-11T22:10:48.715Z,99.90
2022-09-11T22:13:19.639Z,99.90
2022-09-11T22:15:49.185Z,99.90
2022-09-11T22:18:17.427Z,99.90
2022-09-11T22:20:44.692Z,99.90
2022-09-11T22:23:17.965Z,99.90
2022-09-11T22:25:45.519Z,99.90
2022-09-11T22:28:12.644Z,99.90
2022-09-11T22:30:44.310Z,99.90
2022-09-11T22:33:11.505Z,99.90
2022-09-11T22:35:38.446Z,99.90
2022-09-11T22:38:05.457Z,99.90
2022-09-11T22:40:34.617Z,99.90
2022-09-11T22:43:01.632Z,99.90
2022-09-11T22:45:28.651Z,99.90
2022-09-11T22:47:55.602Z,99.90
2022-09-11T22:50:22.503Z,99.90
2022-09-11T22:52:49.391Z,99.90
2022-09-11T22:55:17.002Z,99.90
2022-09-11T22:57:43.885Z,99.90
2022-09-11T23:00:15.268Z,99.90
2022-09-11T23:02:42.388Z,99.90
2022-09-11T23:05:28.145Z,99.90
2022-09-11T23:07:55.011Z,99.90
2022-09-11T23:10:23.552Z,99.90
2022-09-11T23:12:54.670Z,99.90
2022-09-11T23:15:22.214Z,99.90
2022-09-11T23:17:49.160Z,99.90
2022-09-11T23:20:16.243Z,99.90
2022-09-11T23:22:43.089Z,99.90
2022-09-11T23:25:11.186Z,99.90
2022-09-11T23:27:38.305Z,99.90
2022-09-11T23:30:05.970Z,99.90
2022-09-11T23:32:32.939Z,99.90
2022-09-11T23:34:59.869Z,99.90
2022-09-11T23:37:26.924Z,99.90
2022-09-11T23:39:54.054Z,99.90
2022-09-11T23:42:20.927Z,99.90
2022-09-11T23:44:47.756Z,99.90
2022-09-11T23:47:14.837Z,99.90
2022-09-11T23:49:43.524Z,99.90
2022-09-11T23:52:10.530Z,99.90
2022-09-11T23:54:37.398Z,99.90
2022-09-11T23:57:05.607Z,99.90
2022-09-11T23:59:35.980Z,99.90
